sensor_id;sensor_type;location;lat;lon;timestamp;P1;durP1;ratioP1;P2;durP2;ratioP2
49860;SDS011;35761;48.826;9.238;2023-07-20T00:02:19;5.97;;;2.00;;
49860;SDS011;35761;48.826;9.238;2023-07-20T00:04:44;5.43;;;2.10;;
49860;SDS011;35761;48.826;9.238;2023-07-20T00:07:10;6.03;;;2.17;;
49860;SDS011;35761;48.826;9.238;2023-07-20T00:09:35;7.28;;;2.40;;
49860;SDS011;35761;48.826;9.238;2023-07-20T00:12:01;8.27;;;2.40;;
49860;SDS011;35761;48.826;9.238;2023-07-20T00:14:26;8.77;;;2.22;;
49860;SDS011;35761;48.826;9.238;2023-07-20T00:16:52;4.15;;;2.10;;
49860;SDS011;35761;48.826;9.238;2023-07-20T00:19:23;8.82;;;2.70;;
49860;SDS011;35761;48.826;9.238;2023-07-20T00:21:49;4.90;;;2.50;;
49860;SDS011;35761;48.826;9.238;2023-07-20T00:24:14;5.85;;;2.08;;
49860;SDS011;35761;48.826;9.238;2023-07-20T00:26:40;4.10;;;2.35;;
49860;SDS011;35761;48.826;9.238;2023-07-20T00:29:06;5.75;;;2.55;;
49860;SDS011;35761;48.826;9.238;2023-07-20T00:31:31;6.07;;;2.20;;
49860;SDS011;35761;48.826;9.238;2023-07-20T00:33:56;5.63;;;2.38;;
49860;SDS011;35761;48.826;9.238;2023-07-20T00:36:22;4.45;;;1.98;;
49860;SDS011;35761;48.826;9.238;2023-07-20T00:38:47;5.60;;;2.35;;
49860;SDS011;35761;48.826;9.238;2023-07-20T00:41:15;5.38;;;2.08;;
49860;SDS011;35761;48.826;9.238;2023-07-20T00:43:40;4.18;;;2.10;;
49860;SDS011;35761;48.826;9.238;2023-07-20T00:46:06;5.45;;;1.92;;
49860;SDS011;35761;48.826;9.238;2023-07-20T00:48:32;6.38;;;2.28;;
49860;SDS011;35761;48.826;9.238;2023-07-20T00:50:58;5.63;;;2.40;;
49860;SDS011;35761;48.826;9.238;2023-07-20T00:53:24;8.98;;;2.35;;
49860;SDS011;35761;48.826;9.238;2023-07-20T00:55:50;4.95;;;1.83;;
49860;SDS011;35761;48.826;9.238;2023-07-20T00:58:16;7.95;;;2.25;;
49860;SDS011;35761;48.826;9.238;2023-07-20T01:00:41;10.52;;;2.17;;
49860;SDS011;35761;48.826;9.238;2023-07-20T01:03:06;5.95;;;1.98;;
49860;SDS011;35761;48.826;9.238;2023-07-20T01:05:40;5.88;;;2.00;;
49860;SDS011;35761;48.826;9.238;2023-07-20T01:08:15;3.95;;;1.77;;
49860;SDS011;35761;48.826;9.238;2023-07-20T01:10:46;3.88;;;1.90;;
49860;SDS011;35761;48.826;9.238;2023-07-20T01:13:17;4.50;;;2.13;;
49860;SDS011;35761;48.826;9.238;2023-07-20T01:15:48;4.38;;;1.88;;
49860;SDS011;35761;48.826;9.238;2023-07-20T01:18:14;8.18;;;2.03;;
49860;SDS011;35761;48.826;9.238;2023-07-20T01:20:39;7.18;;;2.10;;
49860;SDS011;35761;48.826;9.238;2023-07-20T01:23:14;5.43;;;2.22;;
49860;SDS011;35761;48.826;9.238;2023-07-20T01:31:28;5.30;;;2.15;;
49860;SDS011;35761;48.826;9.238;2023-07-20T01:34:00;5.40;;;2.03;;
49860;SDS011;35761;48.826;9.238;2023-07-20T01:36:26;5.43;;;2.20;;
49860;SDS011;35761;48.826;9.238;2023-07-20T01:38:54;7.07;;;2.20;;
49860;SDS011;35761;48.826;9.238;2023-07-20T01:41:20;3.97;;;2.00;;
49860;SDS011;35761;48.826;9.238;2023-07-20T01:43:46;8.48;;;2.15;;
49860;SDS011;35761;48.826;9.238;2023-07-20T01:46:12;6.93;;;1.90;;
49860;SDS011;35761;48.826;9.238;2023-07-20T01:48:37;11.20;;;2.33;;
49860;SDS011;35761;48.826;9.238;2023-07-20T01:51:02;7.30;;;2.00;;
49860;SDS011;35761;48.826;9.238;2023-07-20T01:53:28;6.28;;;2.22;;
49860;SDS011;35761;48.826;9.238;2023-07-20T01:55:53;6.75;;;2.45;;
49860;SDS011;35761;48.826;9.238;2023-07-20T01:58:19;3.78;;;1.88;;
49860;SDS011;35761;48.826;9.238;2023-07-20T02:00:45;5.28;;;2.17;;
49860;SDS011;35761;48.826;9.238;2023-07-20T02:03:10;3.55;;;1.70;;
49860;SDS011;35761;48.826;9.238;2023-07-20T02:05:37;10.18;;;2.08;;
49860;SDS011;35761;48.826;9.238;2023-07-20T02:08:03;5.53;;;1.98;;
49860;SDS011;35761;48.826;9.238;2023-07-20T02:10:28;5.53;;;1.83;;
49860;SDS011;35761;48.826;9.238;2023-07-20T02:12:54;5.22;;;2.10;;
49860;SDS011;35761;48.826;9.238;2023-07-20T02:15:19;8.95;;;2.45;;
49860;SDS011;35761;48.826;9.238;2023-07-20T02:17:46;4.53;;;2.03;;
49860;SDS011;35761;48.826;9.238;2023-07-20T02:20:11;6.88;;;2.35;;
49860;SDS011;35761;48.826;9.238;2023-07-20T02:22:37;4.40;;;2.20;;
49860;SDS011;35761;48.826;9.238;2023-07-20T02:25:06;6.13;;;2.05;;
49860;SDS011;35761;48.826;9.238;2023-07-20T02:27:33;8.35;;;2.15;;
49860;SDS011;35761;48.826;9.238;2023-07-20T02:29:59;4.95;;;2.25;;
49860;SDS011;35761;48.826;9.238;2023-07-20T02:32:25;4.75;;;2.47;;
49860;SDS011;35761;48.826;9.238;2023-07-20T02:34:50;5.90;;;2.20;;
49860;SDS011;35761;48.826;9.238;2023-07-20T02:37:16;4.43;;;2.10;;
49860;SDS011;35761;48.826;9.238;2023-07-20T02:39:42;5.22;;;2.30;;
49860;SDS011;35761;48.826;9.238;2023-07-20T02:42:07;3.97;;;2.42;;
49860;SDS011;35761;48.826;9.238;2023-07-20T02:44:33;9.73;;;2.65;;
49860;SDS011;35761;48.826;9.238;2023-07-20T02:46:59;19.17;;;2.65;;
49860;SDS011;35761;48.826;9.238;2023-07-20T02:49:24;5.55;;;2.22;;
49860;SDS011;35761;48.826;9.238;2023-07-20T02:51:50;4.85;;;2.40;;
49860;SDS011;35761;48.826;9.238;2023-07-20T02:54:15;5.95;;;2.28;;
49860;SDS011;35761;48.826;9.238;2023-07-20T02:56:41;9.07;;;2.58;;
49860;SDS011;35761;48.826;9.238;2023-07-20T02:59:06;5.82;;;2.03;;
49860;SDS011;35761;48.826;9.238;2023-07-20T03:01:32;8.30;;;1.95;;
49860;SDS011;35761;48.826;9.238;2023-07-20T03:03:57;7.40;;;2.22;;
49860;SDS011;35761;48.826;9.238;2023-07-20T03:06:23;7.00;;;2.83;;
49860;SDS011;35761;48.826;9.238;2023-07-20T03:08:48;6.00;;;2.08;;
49860;SDS011;35761;48.826;9.238;2023-07-20T03:11:17;6.15;;;1.88;;
49860;SDS011;35761;48.826;9.238;2023-07-20T03:13:43;5.75;;;2.47;;
49860;SDS011;35761;48.826;9.238;2023-07-20T03:16:13;6.00;;;2.03;;
49860;SDS011;35761;48.826;9.238;2023-07-20T03:18:41;4.13;;;2.20;;
49860;SDS011;35761;48.826;9.238;2023-07-20T03:21:07;3.75;;;2.38;;
49860;SDS011;35761;48.826;9.238;2023-07-20T03:23:33;11.10;;;2.80;;
49860;SDS011;35761;48.826;9.238;2023-07-20T03:25:59;6.85;;;2.13;;
49860;SDS011;35761;48.826;9.238;2023-07-20T03:28:25;6.10;;;2.58;;
49860;SDS011;35761;48.826;9.238;2023-07-20T03:30:54;6.40;;;2.40;;
49860;SDS011;35761;48.826;9.238;2023-07-20T03:33:30;5.68;;;2.00;;
49860;SDS011;35761;48.826;9.238;2023-07-20T03:35:57;6.00;;;2.30;;
49860;SDS011;35761;48.826;9.238;2023-07-20T03:38:23;6.15;;;2.25;;
49860;SDS011;35761;48.826;9.238;2023-07-20T03:40:50;4.63;;;2.42;;
49860;SDS011;35761;48.826;9.238;2023-07-20T03:43:18;5.53;;;2.00;;
49860;SDS011;35761;48.826;9.238;2023-07-20T03:45:44;5.82;;;2.20;;
49860;SDS011;35761;48.826;9.238;2023-07-20T03:48:11;4.55;;;2.10;;
49860;SDS011;35761;48.826;9.238;2023-07-20T03:50:37;6.20;;;2.35;;
49860;SDS011;35761;48.826;9.238;2023-07-20T03:53:03;5.80;;;2.55;;
49860;SDS011;35761;48.826;9.238;2023-07-20T03:55:30;4.95;;;2.35;;
49860;SDS011;35761;48.826;9.238;2023-07-20T03:57:55;5.45;;;2.63;;
49860;SDS011;35761;48.826;9.238;2023-07-20T04:00:21;7.30;;;2.30;;
49860;SDS011;35761;48.826;9.238;2023-07-20T04:02:48;7.82;;;2.28;;
49860;SDS011;35761;48.826;9.238;2023-07-20T04:05:13;5.40;;;2.58;;
49860;SDS011;35761;48.826;9.238;2023-07-20T04:07:39;5.93;;;2.30;;
49860;SDS011;35761;48.826;9.238;2023-07-20T04:10:04;7.03;;;2.50;;
49860;SDS011;35761;48.826;9.238;2023-07-20T04:12:31;6.20;;;2.70;;
49860;SDS011;35761;48.826;9.238;2023-07-20T04:14:56;5.75;;;2.65;;
49860;SDS011;35761;48.826;9.238;2023-07-20T04:17:22;5.10;;;2.35;;
49860;SDS011;35761;48.826;9.238;2023-07-20T04:19:47;7.68;;;2.45;;
49860;SDS011;35761;48.826;9.238;2023-07-20T04:22:13;6.95;;;2.28;;
49860;SDS011;35761;48.826;9.238;2023-07-20T04:24:41;7.38;;;2.28;;
49860;SDS011;35761;48.826;9.238;2023-07-20T04:27:07;5.38;;;2.53;;
49860;SDS011;35761;48.826;9.238;2023-07-20T04:29:33;7.65;;;2.22;;
49860;SDS011;35761;48.826;9.238;2023-07-20T04:31:59;5.13;;;2.25;;
49860;SDS011;35761;48.826;9.238;2023-07-20T04:34:24;7.70;;;2.35;;
49860;SDS011;35761;48.826;9.238;2023-07-20T04:36:50;5.13;;;2.05;;
49860;SDS011;35761;48.826;9.238;2023-07-20T04:39:15;5.03;;;2.05;;
49860;SDS011;35761;48.826;9.238;2023-07-20T04:41:43;7.10;;;2.90;;
49860;SDS011;35761;48.826;9.238;2023-07-20T04:44:08;5.88;;;2.10;;
49860;SDS011;35761;48.826;9.238;2023-07-20T04:46:34;6.22;;;2.60;;
49860;SDS011;35761;48.826;9.238;2023-07-20T04:49:02;5.65;;;2.50;;
49860;SDS011;35761;48.826;9.238;2023-07-20T04:51:29;6.65;;;2.22;;
49860;SDS011;35761;48.826;9.238;2023-07-20T04:53:55;5.53;;;2.45;;
49860;SDS011;35761;48.826;9.238;2023-07-20T04:56:22;10.25;;;2.78;;
49860;SDS011;35761;48.826;9.238;2023-07-20T04:58:51;7.63;;;2.45;;
49860;SDS011;35761;48.826;9.238;2023-07-20T05:01:17;4.80;;;2.28;;
49860;SDS011;35761;48.826;9.238;2023-07-20T05:03:43;7.10;;;2.63;;
49860;SDS011;35761;48.826;9.238;2023-07-20T05:06:09;7.43;;;2.55;;
49860;SDS011;35761;48.826;9.238;2023-07-20T05:08:34;9.82;;;2.20;;
49860;SDS011;35761;48.826;9.238;2023-07-20T05:11:00;4.97;;;2.17;;
49860;SDS011;35761;48.826;9.238;2023-07-20T05:13:25;5.53;;;2.60;;
49860;SDS011;35761;48.826;9.238;2023-07-20T05:15:54;8.20;;;2.28;;
49860;SDS011;35761;48.826;9.238;2023-07-20T05:18:20;10.80;;;2.30;;
49860;SDS011;35761;48.826;9.238;2023-07-20T05:20:47;9.20;;;2.50;;
49860;SDS011;35761;48.826;9.238;2023-07-20T05:23:13;4.75;;;2.30;;
49860;SDS011;35761;48.826;9.238;2023-07-20T05:25:39;7.28;;;2.33;;
49860;SDS011;35761;48.826;9.238;2023-07-20T05:28:05;5.43;;;2.42;;
49860;SDS011;35761;48.826;9.238;2023-07-20T05:30:31;6.13;;;2.58;;
49860;SDS011;35761;48.826;9.238;2023-07-20T05:32:56;5.57;;;2.13;;
49860;SDS011;35761;48.826;9.238;2023-07-20T05:35:22;6.00;;;2.03;;
49860;SDS011;35761;48.826;9.238;2023-07-20T05:37:47;6.55;;;2.22;;
49860;SDS011;35761;48.826;9.238;2023-07-20T05:40:14;9.70;;;2.30;;
49860;SDS011;35761;48.826;9.238;2023-07-20T05:42:43;5.25;;;2.22;;
49860;SDS011;35761;48.826;9.238;2023-07-20T05:45:08;5.90;;;2.30;;
49860;SDS011;35761;48.826;9.238;2023-07-20T05:47:34;3.17;;;1.90;;
49860;SDS011;35761;48.826;9.238;2023-07-20T05:50:00;4.82;;;2.13;;
49860;SDS011;35761;48.826;9.238;2023-07-20T05:52:25;6.13;;;2.25;;
49860;SDS011;35761;48.826;9.238;2023-07-20T05:54:51;4.18;;;2.20;;
49860;SDS011;35761;48.826;9.238;2023-07-20T05:57:16;7.13;;;2.03;;
49860;SDS011;35761;48.826;9.238;2023-07-20T05:59:42;5.63;;;2.28;;
49860;SDS011;35761;48.826;9.238;2023-07-20T06:02:09;8.43;;;2.55;;
49860;SDS011;35761;48.826;9.238;2023-07-20T06:04:35;8.15;;;2.53;;
49860;SDS011;35761;48.826;9.238;2023-07-20T06:07:01;5.63;;;2.30;;
49860;SDS011;35761;48.826;9.238;2023-07-20T06:09:27;4.47;;;2.08;;
49860;SDS011;35761;48.826;9.238;2023-07-20T06:11:53;7.35;;;2.00;;
49860;SDS011;35761;48.826;9.238;2023-07-20T06:14:18;6.82;;;2.45;;
49860;SDS011;35761;48.826;9.238;2023-07-20T06:16:44;4.13;;;2.28;;
49860;SDS011;35761;48.826;9.238;2023-07-20T06:19:09;6.63;;;2.08;;
49860;SDS011;35761;48.826;9.238;2023-07-20T06:21:37;10.73;;;2.20;;
49860;SDS011;35761;48.826;9.238;2023-07-20T06:24:03;7.32;;;2.10;;
49860;SDS011;35761;48.826;9.238;2023-07-20T06:26:28;5.38;;;1.80;;
49860;SDS011;35761;48.826;9.238;2023-07-20T06:28:55;4.85;;;2.28;;
49860;SDS011;35761;48.826;9.238;2023-07-20T06:31:21;8.07;;;2.08;;
49860;SDS011;35761;48.826;9.238;2023-07-20T06:33:46;7.22;;;2.00;;
49860;SDS011;35761;48.826;9.238;2023-07-20T06:36:12;7.95;;;2.53;;
49860;SDS011;35761;48.826;9.238;2023-07-20T06:38:37;5.53;;;2.03;;
49860;SDS011;35761;48.826;9.238;2023-07-20T06:41:03;5.80;;;2.33;;
49860;SDS011;35761;48.826;9.238;2023-07-20T06:43:28;7.40;;;2.13;;
49860;SDS011;35761;48.826;9.238;2023-07-20T06:45:54;4.43;;;2.20;;
49860;SDS011;35761;48.826;9.238;2023-07-20T06:48:19;10.45;;;2.20;;
49860;SDS011;35761;48.826;9.238;2023-07-20T06:50:45;8.43;;;2.20;;
49860;SDS011;35761;48.826;9.238;2023-07-20T06:53:11;7.32;;;2.10;;
49860;SDS011;35761;48.826;9.238;2023-07-20T06:55:36;7.00;;;2.00;;
49860;SDS011;35761;48.826;9.238;2023-07-20T06:58:01;8.77;;;2.15;;
49860;SDS011;35761;48.826;9.238;2023-07-20T07:00:28;5.63;;;1.92;;
49860;SDS011;35761;48.826;9.238;2023-07-20T07:02:53;6.95;;;2.22;;
49860;SDS011;35761;48.826;9.238;2023-07-20T07:05:19;8.05;;;2.53;;
49860;SDS011;35761;48.826;9.238;2023-07-20T07:07:44;5.88;;;1.90;;
49860;SDS011;35761;48.826;9.238;2023-07-20T07:10:10;6.85;;;2.13;;
49860;SDS011;35761;48.826;9.238;2023-07-20T07:12:35;5.03;;;2.17;;
49860;SDS011;35761;48.826;9.238;2023-07-20T07:15:02;4.25;;;2.03;;
49860;SDS011;35761;48.826;9.238;2023-07-20T07:17:27;4.57;;;2.00;;
49860;SDS011;35761;48.826;9.238;2023-07-20T07:19:53;3.83;;;1.90;;
49860;SDS011;35761;48.826;9.238;2023-07-20T07:22:20;8.02;;;2.20;;
49860;SDS011;35761;48.826;9.238;2023-07-20T07:24:46;8.25;;;2.00;;
49860;SDS011;35761;48.826;9.238;2023-07-20T07:27:12;8.45;;;2.10;;
49860;SDS011;35761;48.826;9.238;2023-07-20T07:29:37;4.88;;;1.70;;
49860;SDS011;35761;48.826;9.238;2023-07-20T07:32:03;6.78;;;2.40;;
49860;SDS011;35761;48.826;9.238;2023-07-20T07:34:29;6.70;;;2.00;;
49860;SDS011;35761;48.826;9.238;2023-07-20T07:36:54;5.10;;;2.33;;
49860;SDS011;35761;48.826;9.238;2023-07-20T07:39:19;4.07;;;2.00;;
49860;SDS011;35761;48.826;9.238;2023-07-20T07:41:45;6.32;;;1.83;;
49860;SDS011;35761;48.826;9.238;2023-07-20T07:44:10;6.60;;;2.17;;
49860;SDS011;35761;48.826;9.238;2023-07-20T07:46:36;4.63;;;1.75;;
49860;SDS011;35761;48.826;9.238;2023-07-20T07:49:02;5.57;;;1.90;;
49860;SDS011;35761;48.826;9.238;2023-07-20T07:51:28;8.10;;;2.00;;
49860;SDS011;35761;48.826;9.238;2023-07-20T07:53:53;7.40;;;2.70;;
49860;SDS011;35761;48.826;9.238;2023-07-20T07:56:19;4.75;;;2.00;;
49860;SDS011;35761;48.826;9.238;2023-07-20T07:58:48;6.43;;;2.00;;
49860;SDS011;35761;48.826;9.238;2023-07-20T08:01:14;5.22;;;2.20;;
49860;SDS011;35761;48.826;9.238;2023-07-20T08:03:40;8.85;;;2.45;;
49860;SDS011;35761;48.826;9.238;2023-07-20T08:06:05;4.97;;;2.00;;
49860;SDS011;35761;48.826;9.238;2023-07-20T08:08:31;5.40;;;2.20;;
49860;SDS011;35761;48.826;9.238;2023-07-20T08:10:58;4.32;;;1.90;;
49860;SDS011;35761;48.826;9.238;2023-07-20T08:13:23;7.07;;;2.40;;
49860;SDS011;35761;48.826;9.238;2023-07-20T08:15:49;10.00;;;2.60;;
49860;SDS011;35761;48.826;9.238;2023-07-20T08:18:18;5.75;;;2.20;;
49860;SDS011;35761;48.826;9.238;2023-07-20T08:20:44;8.05;;;2.20;;
49860;SDS011;35761;48.826;9.238;2023-07-20T08:23:10;5.32;;;1.90;;
49860;SDS011;35761;48.826;9.238;2023-07-20T08:25:36;5.18;;;1.88;;
49860;SDS011;35761;48.826;9.238;2023-07-20T08:28:04;4.90;;;1.92;;
49860;SDS011;35761;48.826;9.238;2023-07-20T08:30:39;5.40;;;1.98;;
49860;SDS011;35761;48.826;9.238;2023-07-20T08:33:09;10.02;;;2.58;;
49860;SDS011;35761;48.826;9.238;2023-07-20T08:35:41;7.90;;;2.40;;
49860;SDS011;35761;48.826;9.238;2023-07-20T08:38:07;6.40;;;1.95;;
49860;SDS011;35761;48.826;9.238;2023-07-20T08:40:33;10.00;;;1.98;;
49860;SDS011;35761;48.826;9.238;2023-07-20T08:42:59;6.15;;;2.05;;
49860;SDS011;35761;48.826;9.238;2023-07-20T08:45:28;8.73;;;2.10;;
49860;SDS011;35761;48.826;9.238;2023-07-20T08:47:58;7.93;;;2.13;;
49860;SDS011;35761;48.826;9.238;2023-07-20T08:50:24;4.50;;;2.08;;
49860;SDS011;35761;48.826;9.238;2023-07-20T08:52:51;4.80;;;2.17;;
49860;SDS011;35761;48.826;9.238;2023-07-20T08:55:18;6.35;;;1.92;;
49860;SDS011;35761;48.826;9.238;2023-07-20T08:57:44;4.07;;;1.95;;
49860;SDS011;35761;48.826;9.238;2023-07-20T09:00:11;4.57;;;1.80;;
49860;SDS011;35761;48.826;9.238;2023-07-20T09:02:39;5.15;;;2.25;;
49860;SDS011;35761;48.826;9.238;2023-07-20T09:05:08;10.32;;;1.98;;
49860;SDS011;35761;48.826;9.238;2023-07-20T09:07:39;6.45;;;2.08;;
49860;SDS011;35761;48.826;9.238;2023-07-20T09:10:06;7.88;;;2.17;;
49860;SDS011;35761;48.826;9.238;2023-07-20T09:12:35;4.30;;;1.80;;
49860;SDS011;35761;48.826;9.238;2023-07-20T09:15:02;7.10;;;1.80;;
49860;SDS011;35761;48.826;9.238;2023-07-20T09:17:28;5.07;;;1.90;;
49860;SDS011;35761;48.826;9.238;2023-07-20T09:19:53;3.33;;;1.63;;
49860;SDS011;35761;48.826;9.238;2023-07-20T09:22:19;7.63;;;1.70;;
49860;SDS011;35761;48.826;9.238;2023-07-20T09:24:44;4.10;;;1.90;;
49860;SDS011;35761;48.826;9.238;2023-07-20T09:27:10;9.10;;;2.63;;
49860;SDS011;35761;48.826;9.238;2023-07-20T09:29:51;5.93;;;1.98;;
49860;SDS011;35761;48.826;9.238;2023-07-20T09:32:23;9.32;;;2.50;;
49860;SDS011;35761;48.826;9.238;2023-07-20T09:34:51;8.50;;;2.17;;
49860;SDS011;35761;48.826;9.238;2023-07-20T09:37:21;8.18;;;2.55;;
49860;SDS011;35761;48.826;9.238;2023-07-20T09:39:47;4.28;;;2.03;;
49860;SDS011;35761;48.826;9.238;2023-07-20T09:42:14;4.65;;;1.70;;
49860;SDS011;35761;48.826;9.238;2023-07-20T09:44:40;3.78;;;1.98;;
49860;SDS011;35761;48.826;9.238;2023-07-20T09:47:09;6.13;;;1.80;;
49860;SDS011;35761;48.826;9.238;2023-07-20T09:49:41;5.90;;;2.00;;
49860;SDS011;35761;48.826;9.238;2023-07-20T09:52:07;4.30;;;1.90;;
49860;SDS011;35761;48.826;9.238;2023-07-20T09:54:34;6.38;;;1.73;;
49860;SDS011;35761;48.826;9.238;2023-07-20T09:56:59;7.28;;;1.67;;
49860;SDS011;35761;48.826;9.238;2023-07-20T09:59:25;6.35;;;1.90;;
49860;SDS011;35761;48.826;9.238;2023-07-20T10:01:51;7.07;;;1.75;;
49860;SDS011;35761;48.826;9.238;2023-07-20T10:04:18;5.10;;;1.70;;
49860;SDS011;35761;48.826;9.238;2023-07-20T10:06:46;7.85;;;1.70;;
49860;SDS011;35761;48.826;9.238;2023-07-20T10:09:12;9.38;;;1.65;;
49860;SDS011;35761;48.826;9.238;2023-07-20T10:11:40;7.55;;;1.52;;
49860;SDS011;35761;48.826;9.238;2023-07-20T10:14:11;3.00;;;1.60;;
49860;SDS011;35761;48.826;9.238;2023-07-20T10:16:42;7.28;;;1.70;;
49860;SDS011;35761;48.826;9.238;2023-07-20T10:19:33;3.35;;;1.70;;
49860;SDS011;35761;48.826;9.238;2023-07-20T10:22:10;5.25;;;1.13;;
49860;SDS011;35761;48.826;9.238;2023-07-20T10:24:39;2.40;;;1.27;;
49860;SDS011;35761;48.826;9.238;2023-07-20T10:27:05;3.40;;;1.50;;
49860;SDS011;35761;48.826;9.238;2023-07-20T10:29:30;5.10;;;1.75;;
49860;SDS011;35761;48.826;9.238;2023-07-20T10:31:56;3.22;;;1.45;;
49860;SDS011;35761;48.826;9.238;2023-07-20T10:34:22;4.68;;;1.40;;
49860;SDS011;35761;48.826;9.238;2023-07-20T10:36:48;3.55;;;1.55;;
49860;SDS011;35761;48.826;9.238;2023-07-20T10:39:23;6.50;;;1.42;;
49860;SDS011;35761;48.826;9.238;2023-07-20T10:41:50;2.42;;;1.20;;
49860;SDS011;35761;48.826;9.238;2023-07-20T10:44:18;3.40;;;1.38;;
49860;SDS011;35761;48.826;9.238;2023-07-20T10:46:45;3.80;;;1.80;;
49860;SDS011;35761;48.826;9.238;2023-07-20T10:49:11;3.05;;;1.40;;
49860;SDS011;35761;48.826;9.238;2023-07-20T10:51:39;5.50;;;1.65;;
49860;SDS011;35761;48.826;9.238;2023-07-20T10:54:33;2.03;;;1.20;;
49860;SDS011;35761;48.826;9.238;2023-07-20T10:56:57;6.47;;;1.65;;
49860;SDS011;35761;48.826;9.238;2023-07-20T11:01:49;3.92;;;1.50;;
49860;SDS011;35761;48.826;9.238;2023-07-20T11:04:15;2.40;;;1.30;;
49860;SDS011;35761;48.826;9.238;2023-07-20T11:06:44;4.10;;;1.27;;
49860;SDS011;35761;48.826;9.238;2023-07-20T11:09:11;4.15;;;2.00;;
49860;SDS011;35761;48.826;9.238;2023-07-20T11:11:41;3.00;;;1.92;;
49860;SDS011;35761;48.826;9.238;2023-07-20T11:14:31;6.72;;;1.50;;
49860;SDS011;35761;48.826;9.238;2023-07-20T11:17:10;3.00;;;1.60;;
49860;SDS011;35761;48.826;9.238;2023-07-20T11:19:37;2.47;;;1.60;;
49860;SDS011;35761;48.826;9.238;2023-07-20T11:22:04;4.78;;;1.67;;
49860;SDS011;35761;48.826;9.238;2023-07-20T11:24:32;2.90;;;1.70;;
49860;SDS011;35761;48.826;9.238;2023-07-20T11:26:58;5.43;;;1.50;;
49860;SDS011;35761;48.826;9.238;2023-07-20T11:29:25;2.97;;;1.45;;
49860;SDS011;35761;48.826;9.238;2023-07-20T11:31:51;2.80;;;1.40;;
49860;SDS011;35761;48.826;9.238;2023-07-20T11:34:17;5.10;;;1.55;;
49860;SDS011;35761;48.826;9.238;2023-07-20T11:36:44;4.50;;;1.45;;
49860;SDS011;35761;48.826;9.238;2023-07-20T11:39:12;4.70;;;1.38;;
49860;SDS011;35761;48.826;9.238;2023-07-20T11:41:38;4.22;;;1.60;;
49860;SDS011;35761;48.826;9.238;2023-07-20T11:44:06;5.10;;;1.60;;
49860;SDS011;35761;48.826;9.238;2023-07-20T11:46:32;1.52;;;1.20;;
49860;SDS011;35761;48.826;9.238;2023-07-20T11:48:59;4.00;;;1.17;;
49860;SDS011;35761;48.826;9.238;2023-07-20T11:51:25;3.00;;;1.23;;
49860;SDS011;35761;48.826;9.238;2023-07-20T11:53:52;3.88;;;1.20;;
49860;SDS011;35761;48.826;9.238;2023-07-20T11:56:18;4.10;;;1.60;;
49860;SDS011;35761;48.826;9.238;2023-07-20T11:58:44;3.30;;;1.50;;
49860;SDS011;35761;48.826;9.238;2023-07-20T12:01:11;4.88;;;1.40;;
49860;SDS011;35761;48.826;9.238;2023-07-20T12:03:37;3.10;;;1.33;;
49860;SDS011;35761;48.826;9.238;2023-07-20T12:06:06;2.33;;;1.40;;
49860;SDS011;35761;48.826;9.238;2023-07-20T12:08:33;3.03;;;1.23;;
49860;SDS011;35761;48.826;9.238;2023-07-20T12:10:58;3.55;;;1.45;;
49860;SDS011;35761;48.826;9.238;2023-07-20T12:13:24;2.47;;;1.20;;
49860;SDS011;35761;48.826;9.238;2023-07-20T12:15:52;4.70;;;1.40;;
49860;SDS011;35761;48.826;9.238;2023-07-20T12:18:22;7.47;;;1.40;;
49860;SDS011;35761;48.826;9.238;2023-07-20T12:20:48;6.88;;;1.60;;
49860;SDS011;35761;48.826;9.238;2023-07-20T12:23:13;3.90;;;1.52;;
49860;SDS011;35761;48.826;9.238;2023-07-20T12:25:40;3.20;;;1.58;;
49860;SDS011;35761;48.826;9.238;2023-07-20T12:28:10;6.30;;;1.60;;
49860;SDS011;35761;48.826;9.238;2023-07-20T12:30:40;7.47;;;1.67;;
49860;SDS011;35761;48.826;9.238;2023-07-20T12:33:07;3.58;;;1.40;;
49860;SDS011;35761;48.826;9.238;2023-07-20T12:35:32;2.38;;;1.40;;
49860;SDS011;35761;48.826;9.238;2023-07-20T12:37:58;3.65;;;1.60;;
49860;SDS011;35761;48.826;9.238;2023-07-20T12:40:23;4.28;;;1.17;;
49860;SDS011;35761;48.826;9.238;2023-07-20T12:42:49;2.78;;;1.40;;
49860;SDS011;35761;48.826;9.238;2023-07-20T12:45:15;7.60;;;1.33;;
49860;SDS011;35761;48.826;9.238;2023-07-20T12:47:41;2.72;;;1.50;;
49860;SDS011;35761;48.826;9.238;2023-07-20T12:50:08;1.88;;;1.40;;
49860;SDS011;35761;48.826;9.238;2023-07-20T12:52:37;3.40;;;1.50;;
49860;SDS011;35761;48.826;9.238;2023-07-20T12:55:07;3.78;;;1.42;;
49860;SDS011;35761;48.826;9.238;2023-07-20T12:57:37;2.88;;;1.38;;
49860;SDS011;35761;48.826;9.238;2023-07-20T13:00:03;4.15;;;1.63;;
49860;SDS011;35761;48.826;9.238;2023-07-20T13:02:35;2.80;;;1.50;;
49860;SDS011;35761;48.826;9.238;2023-07-20T13:05:01;8.13;;;5.30;;
49860;SDS011;35761;48.826;9.238;2023-07-20T13:07:30;4.15;;;1.17;;
49860;SDS011;35761;48.826;9.238;2023-07-20T13:09:57;3.95;;;1.40;;
49860;SDS011;35761;48.826;9.238;2023-07-20T13:12:24;3.45;;;1.38;;
49860;SDS011;35761;48.826;9.238;2023-07-20T13:14:50;6.10;;;1.48;;
49860;SDS011;35761;48.826;9.238;2023-07-20T13:17:15;4.72;;;1.50;;
49860;SDS011;35761;48.826;9.238;2023-07-20T13:19:40;4.47;;;1.35;;
49860;SDS011;35761;48.826;9.238;2023-07-20T13:22:06;1.80;;;1.40;;
49860;SDS011;35761;48.826;9.238;2023-07-20T13:24:31;2.70;;;1.60;;
49860;SDS011;35761;48.826;9.238;2023-07-20T13:26:57;6.28;;;1.40;;
49860;SDS011;35761;48.826;9.238;2023-07-20T13:29:23;1.65;;;1.25;;
49860;SDS011;35761;48.826;9.238;2023-07-20T13:31:49;3.72;;;1.58;;
49860;SDS011;35761;48.826;9.238;2023-07-20T13:34:14;3.55;;;1.52;;
49860;SDS011;35761;48.826;9.238;2023-07-20T13:36:40;2.05;;;1.10;;
49860;SDS011;35761;48.826;9.238;2023-07-20T13:39:05;8.35;;;1.40;;
49860;SDS011;35761;48.826;9.238;2023-07-20T13:41:31;4.05;;;1.30;;
49860;SDS011;35761;48.826;9.238;2023-07-20T13:43:57;1.75;;;1.20;;
49860;SDS011;35761;48.826;9.238;2023-07-20T13:46:23;1.60;;;1.23;;
49860;SDS011;35761;48.826;9.238;2023-07-20T13:48:48;2.17;;;1.40;;
49860;SDS011;35761;48.826;9.238;2023-07-20T13:51:14;2.92;;;1.40;;
49860;SDS011;35761;48.826;9.238;2023-07-20T13:53:39;2.08;;;1.20;;
49860;SDS011;35761;48.826;9.238;2023-07-20T13:56:05;4.32;;;1.30;;
49860;SDS011;35761;48.826;9.238;2023-07-20T13:58:32;2.72;;;1.38;;
49860;SDS011;35761;48.826;9.238;2023-07-20T14:00:57;5.18;;;1.48;;
49860;SDS011;35761;48.826;9.238;2023-07-20T14:03:23;2.55;;;1.30;;
49860;SDS011;35761;48.826;9.238;2023-07-20T14:05:49;5.53;;;1.55;;
49860;SDS011;35761;48.826;9.238;2023-07-20T14:08:15;7.03;;;1.45;;
49860;SDS011;35761;48.826;9.238;2023-07-20T14:10:40;5.13;;;1.35;;
49860;SDS011;35761;48.826;9.238;2023-07-20T14:13:06;4.93;;;1.40;;
49860;SDS011;35761;48.826;9.238;2023-07-20T14:15:32;2.38;;;1.40;;
49860;SDS011;35761;48.826;9.238;2023-07-20T14:17:58;3.00;;;1.48;;
49860;SDS011;35761;48.826;9.238;2023-07-20T14:20:24;12.60;;;1.50;;
49860;SDS011;35761;48.826;9.238;2023-07-20T14:22:49;3.55;;;1.20;;
49860;SDS011;35761;48.826;9.238;2023-07-20T14:25:15;4.28;;;1.50;;
49860;SDS011;35761;48.826;9.238;2023-07-20T14:27:41;3.50;;;1.50;;
49860;SDS011;35761;48.826;9.238;2023-07-20T14:30:06;3.67;;;1.30;;
49860;SDS011;35761;48.826;9.238;2023-07-20T14:32:34;2.88;;;1.30;;
49860;SDS011;35761;48.826;9.238;2023-07-20T14:35:00;7.20;;;1.58;;
49860;SDS011;35761;48.826;9.238;2023-07-20T14:37:25;4.68;;;1.50;;
49860;SDS011;35761;48.826;9.238;2023-07-20T14:39:50;4.90;;;1.80;;
49860;SDS011;35761;48.826;9.238;2023-07-20T14:42:16;3.65;;;1.23;;
49860;SDS011;35761;48.826;9.238;2023-07-20T14:44:43;2.15;;;1.30;;
49860;SDS011;35761;48.826;9.238;2023-07-20T14:47:08;2.92;;;1.52;;
49860;SDS011;35761;48.826;9.238;2023-07-20T14:49:34;2.80;;;1.27;;
49860;SDS011;35761;48.826;9.238;2023-07-20T14:51:59;4.10;;;1.13;;
49860;SDS011;35761;48.826;9.238;2023-07-20T14:54:25;3.28;;;1.40;;